createdAt,value
2018-01-28T00:00:03.709Z,4.52
2018-01-28T00:01:13.638Z,4.53
2018-01-28T00:02:23.627Z,4.52
2018-01-28T00:03:33.805Z,4.41
2018-01-28T00:04:44.055Z,4.52
2018-01-28T00:05:54.300Z,4.56
2018-01-28T00:07:04.501Z,4.52
2018-01-28T00:08:14.751Z,4.53
2018-01-28T00:09:24.694Z,4.56
2018-01-28T00:10:34.825Z,4.55
2018-01-28T00:11:44.972Z,4.57
2018-01-28T00:12:55.142Z,4.65
2018-01-28T00:14:05.280Z,4.56
2018-01-28T00:15:15.569Z,4.5
2018-01-28T00:16:25.753Z,4.52
2018-01-28T00:17:36.021Z,4.5
2018-01-28T00:18:46.206Z,4.49
2018-01-28T00:19:56.378Z,4.55
2018-01-28T00:21:06.520Z,4.52
2018-01-28T00:22:16.660Z,4.55
2018-01-28T00:23:26.827Z,4.57
2018-01-28T00:24:37.015Z,4.57
2018-01-28T00:25:47.152Z,4.55
2018-01-28T00:26:57.385Z,4.55
2018-01-28T00:28:07.653Z,4.5
2018-01-28T00:29:17.781Z,4.49
2018-01-28T00:30:28.680Z,4.53
2018-01-28T00:31:38.837Z,4.56
2018-01-28T00:32:49.013Z,4.43
2018-01-28T00:33:59.187Z,4.49
2018-01-28T00:35:09.339Z,4.49
2018-01-28T00:36:19.527Z,4.59
2018-01-28T00:37:29.453Z,4.49
2018-01-28T00:38:39.622Z,4.56
2018-01-28T00:39:49.776Z,4.57
2018-01-28T00:40:59.942Z,4.56
2018-01-28T00:42:10.196Z,4.55
2018-01-28T00:43:20.435Z,4.52
2018-01-28T00:44:30.733Z,4.55
2018-01-28T00:45:40.877Z,4.59
2018-01-28T00:46:50.775Z,4.53
2018-01-28T00:48:00.942Z,4.53
2018-01-28T00:49:11.071Z,4.63
2018-01-28T00:50:21.193Z,4.65
2018-01-28T00:51:31.609Z,4.68
2018-01-28T00:52:41.747Z,4.65
2018-01-28T00:53:51.875Z,4.65
2018-01-28T00:55:02.114Z,4.67
2018-01-28T00:56:12.046Z,4.68
2018-01-28T00:57:21.829Z,4.62
2018-01-28T00:58:31.967Z,4.7
2018-01-28T00:59:42.126Z,4.6
2018-01-28T01:00:52.258Z,4.7
2018-01-28T01:02:02.434Z,4.62
2018-01-28T01:03:12.620Z,4.67
2018-01-28T01:04:22.560Z,4.65
2018-01-28T01:05:32.713Z,4.71
2018-01-28T01:06:42.909Z,4.8
2018-01-28T01:07:52.840Z,4.77
2018-01-28T01:09:02.995Z,4.74
2018-01-28T01:10:13.125Z,4.77
2018-01-28T01:11:23.299Z,4.78
2018-01-28T01:12:33.460Z,4.85
2018-01-28T01:13:43.683Z,4.78
2018-01-28T01:14:53.839Z,4.7
2018-01-28T01:16:04.015Z,4.83
2018-01-28T01:17:13.903Z,4.7
2018-01-28T01:18:24.152Z,4.71
2018-01-28T01:19:34.398Z,4.68
2018-01-28T01:20:44.697Z,4.71
2018-01-28T01:21:54.579Z,4.78
2018-01-28T01:23:04.698Z,4.71
2018-01-28T01:24:15.803Z,4.68
2018-01-28T01:25:25.965Z,4.71
2018-01-28T01:26:36.139Z,4.77
2018-01-28T01:27:46.264Z,4.67
2018-01-28T01:28:57.384Z,4.73
2018-01-28T01:30:07.570Z,4.7
2018-01-28T01:31:17.705Z,4.71
2018-01-28T01:32:27.823Z,4.75
2018-01-28T01:33:37.995Z,4.71
2018-01-28T01:34:48.291Z,4.65
2018-01-28T01:35:58.463Z,4.67
2018-01-28T01:37:08.743Z,4.78
2018-01-28T01:38:18.954Z,4.8
2018-01-28T01:39:29.105Z,4.74
2018-01-28T01:40:39.069Z,4.81
2018-01-28T01:41:49.002Z,4.71
2018-01-28T01:42:58.989Z,4.8
2018-01-28T01:44:09.131Z,4.8
2018-01-28T01:45:19.273Z,4.73
2018-01-28T01:46:29.462Z,4.83
2018-01-28T01:47:39.714Z,4.73
2018-01-28T01:48:50.830Z,4.71
2018-01-28T01:50:01.116Z,4.77
2018-01-28T01:51:11.310Z,4.77
2018-01-28T01:52:21.567Z,4.71
2018-01-28T01:53:31.722Z,4.77
2018-01-28T01:54:41.656Z,4.77
2018-01-28T01:55:51.769Z,4.71
2018-01-28T01:57:01.918Z,4.73
2018-01-28T01:58:12.169Z,4.86
2018-01-28T01:59:22.373Z,4.71
2018-01-28T02:00:32.600Z,4.81
2018-01-28T02:01:42.760Z,4.83
2018-01-28T02:02:52.913Z,4.85
2018-01-28T02:04:03.095Z,4.86
2018-01-28T02:05:13.255Z,4.75
2018-01-28T02:06:23.410Z,4.71
2018-01-28T02:07:33.539Z,4.67
2018-01-28T02:08:43.713Z,4.81
2018-01-28T02:09:53.847Z,4.77
2018-01-28T02:11:04.034Z,4.85
2018-01-28T02:12:14.170Z,4.88
2018-01-28T02:13:24.546Z,4.81
2018-01-28T02:14:34.812Z,4.8
2018-01-28T02:15:44.997Z,4.85
2018-01-28T02:16:55.271Z,4.83
2018-01-28T02:18:05.451Z,4.81
2018-01-28T02:19:15.344Z,4.78
2018-01-28T02:20:25.560Z,4.77
2018-01-28T02:21:35.732Z,4.85
2018-01-28T02:22:45.857Z,4.81
2018-01-28T02:23:56.060Z,4.8
2018-01-28T02:25:06.289Z,4.81
2018-01-28T02:26:16.161Z,4.86
2018-01-28T02:27:26.280Z,4.85
2018-01-28T02:28:36.416Z,4.83
2018-01-28T02:29:46.551Z,4.8
2018-01-28T02:30:56.662Z,4.88
2018-01-28T02:32:06.798Z,4.81
2018-01-28T02:33:16.915Z,4.77
2018-01-28T02:34:27.044Z,4.83
2018-01-28T02:35:37.186Z,4.81
2018-01-28T02:36:47.345Z,4.9
2018-01-28T02:37:57.463Z,4.89
2018-01-28T02:39:07.578Z,4.92
2018-01-28T02:40:17.934Z,4.92
2018-01-28T02:41:28.762Z,4.93
2018-01-28T02:42:38.900Z,4.9
2018-01-28T02:43:48.782Z,4.95
2018-01-28T02:44:58.923Z,5
2018-01-28T02:46:09.032Z,4.95
2018-01-28T02:47:19.209Z,4.93
2018-01-28T02:48:29.400Z,4.83
2018-01-28T02:49:39.526Z,4.8
2018-01-28T02:50:49.713Z,4.86
2018-01-28T02:51:59.873Z,4.7
2018-01-28T02:53:10.081Z,4.78
2018-01-28T02:54:20.196Z,4.77
2018-01-28T02:55:30.346Z,4.77
2018-01-28T02:56:40.458Z,4.63
2018-01-28T02:57:50.640Z,4.63
2018-01-28T02:59:00.800Z,4.68
2018-01-28T03:00:10.943Z,4.65
2018-01-28T03:01:21.065Z,4.74
2018-01-28T03:02:31.182Z,4.62
2018-01-28T03:03:41.297Z,4.63
2018-01-28T03:04:51.423Z,4.63
2018-01-28T03:06:01.655Z,4.68
2018-01-28T03:07:11.887Z,4.68
2018-01-28T03:08:21.767Z,4.68
2018-01-28T03:09:31.870Z,4.65
2018-01-28T03:10:41.997Z,4.55
2018-01-28T03:11:52.213Z,4.57
2018-01-28T03:13:02.197Z,4.57
2018-01-28T03:14:12.309Z,4.62
2018-01-28T03:15:22.166Z,4.59
2018-01-28T03:16:32.308Z,4.55
2018-01-28T03:17:42.418Z,4.7
2018-01-28T03:18:52.538Z,4.73
2018-01-28T03:20:02.770Z,4.62
2018-01-28T03:21:12.881Z,4.77
2018-01-28T03:22:23.015Z,4.77
2018-01-28T03:23:33.151Z,4.71
2018-01-28T03:24:43.268Z,4.8
2018-01-28T03:25:53.269Z,4.85
2018-01-28T03:27:03.388Z,4.81
2018-01-28T03:28:13.526Z,4.83
2018-01-28T03:29:23.636Z,4.88
2018-01-28T03:30:33.882Z,4.93
2018-01-28T03:31:44.066Z,5.04
2018-01-28T03:32:54.240Z,4.99
2018-01-28T03:34:04.456Z,5.13
2018-01-28T03:35:14.343Z,5.08
2018-01-28T03:36:24.465Z,5.17
2018-01-28T03:37:34.653Z,5.17
2018-01-28T03:38:44.823Z,5.13
2018-01-28T03:39:54.982Z,5.31
2018-01-28T03:41:05.102Z,5.25
2018-01-28T03:42:15.208Z,5.17
2018-01-28T03:43:25.423Z,5.16
2018-01-28T03:44:35.760Z,5.18
2018-01-28T03:45:45.911Z,5.25
2018-01-28T03:46:56.035Z,5.29
2018-01-28T03:48:06.173Z,5.36
2018-01-28T03:49:16.318Z,5.38
2018-01-28T03:50:25.931Z,5.33
2018-01-28T03:51:36.043Z,5.32
2018-01-28T03:52:46.396Z,5.32
2018-01-28T03:53:56.300Z,5.31
2018-01-28T03:55:06.537Z,5.38
2018-01-28T03:56:16.737Z,5.41
2018-01-28T03:57:26.872Z,5.38
2018-01-28T03:58:37.002Z,5.41
2018-01-28T03:59:47.141Z,5.46
2018-01-28T04:00:57.268Z,5.41
2018-01-28T04:02:07.394Z,5.44
2018-01-28T04:03:17.634Z,5.44
2018-01-28T04:04:27.500Z,5.49
2018-01-28T04:05:37.600Z,5.43
2018-01-28T04:06:47.728Z,5.47
2018-01-28T04:07:57.969Z,5.46
2018-01-28T04:09:08.272Z,5.54
2018-01-28T04:10:18.047Z,5.5
2018-01-28T04:11:28.204Z,5.5
2018-01-28T04:12:38.414Z,5.54
2018-01-28T04:13:48.621Z,5.53
2018-01-28T04:14:58.818Z,5.59
2018-01-28T04:16:08.957Z,5.53
2018-01-28T04:17:19.067Z,5.51
2018-01-28T04:18:29.175Z,5.5
2018-01-28T04:19:39.270Z,5.54
2018-01-28T04:20:49.476Z,5.54
2018-01-28T04:21:59.669Z,5.58
2018-01-28T04:23:10.933Z,5.59
2018-01-28T04:24:21.054Z,5.51
2018-01-28T04:25:31.223Z,5.67
2018-01-28T04:26:41.555Z,5.58
2018-01-28T04:27:51.974Z,5.69
2018-01-28T04:29:02.148Z,5.64
2018-01-28T04:30:13.244Z,5.71
2018-01-28T04:31:23.413Z,5.71
2018-01-28T04:32:33.592Z,5.72
2018-01-28T04:33:43.887Z,5.71
2018-01-28T04:34:54.103Z,5.69
2018-01-28T04:36:04.069Z,5.72
2018-01-28T04:37:14.243Z,5.72
2018-01-28T04:38:24.440Z,5.69
2018-01-28T04:39:34.601Z,5.74
2018-01-28T04:40:44.855Z,5.74
2018-01-28T04:41:55.024Z,5.67
2018-01-28T04:43:04.910Z,5.68
2018-01-28T04:44:15.024Z,5.74
2018-01-28T04:45:24.868Z,5.69
2018-01-28T04:46:34.985Z,5.65
2018-01-28T04:47:45.129Z,5.67
2018-01-28T04:48:55.011Z,5.68
2018-01-28T04:50:05.296Z,5.67
2018-01-28T04:51:15.413Z,5.77
2018-01-28T04:52:25.522Z,5.69
2018-01-28T04:53:35.722Z,5.77
2018-01-28T04:54:46.015Z,5.83
2018-01-28T04:55:56.158Z,5.8
2018-01-28T04:57:06.394Z,5.79
2018-01-28T04:58:16.568Z,5.84
2018-01-28T04:59:26.817Z,5.77
2018-01-28T05:00:36.928Z,5.79
2018-01-28T05:01:46.788Z,5.77
2018-01-28T05:02:57.005Z,5.69
2018-01-28T05:04:07.307Z,5.69
2018-01-28T05:05:17.506Z,5.74
2018-01-28T05:06:27.828Z,5.68
2018-01-28T05:07:37.985Z,5.65
2018-01-28T05:08:48.098Z,5.68
2018-01-28T05:09:57.945Z,5.69
2018-01-28T05:11:08.126Z,5.69
2018-01-28T05:12:18.288Z,5.68
2018-01-28T05:13:28.504Z,5.62
2018-01-28T05:14:38.691Z,5.64
2018-01-28T05:15:48.914Z,5.58
2018-01-28T05:16:59.112Z,5.58
2018-01-28T05:18:09.226Z,5.58
2018-01-28T05:19:19.382Z,5.58
2018-01-28T05:20:29.539Z,5.59
2018-01-28T05:21:39.489Z,5.59
2018-01-28T05:22:49.601Z,5.67
2018-01-28T05:23:59.711Z,5.51
2018-01-28T05:25:09.850Z,5.59
2018-01-28T05:26:19.754Z,5.54
2018-01-28T05:27:29.891Z,5.61
2018-01-28T05:28:40.070Z,5.56
2018-01-28T05:29:50.237Z,5.58
2018-01-28T05:31:00.364Z,5.53
2018-01-28T05:32:10.600Z,5.53
2018-01-28T05:33:20.736Z,5.5
2018-01-28T05:34:31.100Z,5.41
2018-01-28T05:35:41.248Z,5.38
2018-01-28T05:36:51.496Z,5.41
2018-01-28T05:38:01.691Z,5.4
2018-01-28T05:39:11.857Z,5.38
2018-01-28T05:40:21.961Z,5.43
2018-01-28T05:41:32.065Z,5.38
2018-01-28T05:42:42.189Z,5.38
2018-01-28T05:43:52.309Z,5.44
2018-01-28T05:45:02.526Z,5.36
2018-01-28T05:46:12.684Z,5.38
2018-01-28T05:47:22.884Z,5.44
2018-01-28T05:48:33.012Z,5.4
2018-01-28T05:49:43.136Z,5.41
2018-01-28T05:50:53.038Z,5.41
2018-01-28T05:52:03.142Z,5.47
2018-01-28T05:53:13.339Z,5.44
2018-01-28T05:54:23.431Z,5.44
2018-01-28T05:55:33.622Z,5.43
2018-01-28T05:56:43.443Z,5.44
2018-01-28T05:57:53.576Z,5.47
2018-01-28T05:59:03.788Z,5.44
2018-01-28T06:00:13.915Z,5.5
2018-01-28T06:01:24.103Z,5.51
2018-01-28T06:02:34.489Z,5.53
2018-01-28T06:03:44.625Z,5.54
2018-01-28T06:04:54.864Z,5.56
2018-01-28T06:06:05.031Z,5.58
2018-01-28T06:07:15.214Z,5.58
2018-01-28T06:08:25.374Z,5.56
2018-01-28T06:09:35.497Z,5.54
2018-01-28T06:10:45.628Z,5.58
2018-01-28T06:11:55.769Z,5.53
2018-01-28T06:13:05.919Z,5.54
2018-01-28T06:14:15.834Z,5.64
2018-01-28T06:15:25.966Z,5.69
2018-01-28T06:16:36.144Z,5.65
2018-01-28T06:17:46.381Z,5.56
2018-01-28T06:18:56.519Z,5.67
2018-01-28T06:20:06.666Z,5.65
2018-01-28T06:21:16.760Z,5.67
2018-01-28T06:22:26.890Z,5.56
2018-01-28T06:23:37.054Z,5.67
2018-01-28T06:24:47.192Z,5.68
2018-01-28T06:25:57.299Z,5.64
2018-01-28T06:27:07.463Z,5.71
2018-01-28T06:28:17.617Z,5.67
2018-01-28T06:29:27.763Z,5.65
2018-01-28T06:30:37.869Z,5.74
2018-01-28T06:31:48.017Z,5.75
2018-01-28T06:32:58.256Z,5.67
2018-01-28T06:34:08.388Z,5.69
2018-01-28T06:35:18.485Z,5.68
2018-01-28T06:36:28.421Z,5.71
2018-01-28T06:37:38.576Z,5.67
2018-01-28T06:38:48.755Z,5.74
2018-01-28T06:39:58.907Z,5.68
2018-01-28T06:41:09.032Z,5.71
2018-01-28T06:42:18.966Z,5.69
2018-01-28T06:43:29.133Z,5.69
2018-01-28T06:44:39.289Z,5.68
2018-01-28T06:45:49.396Z,5.69
2018-01-28T06:46:59.560Z,5.67
2018-01-28T06:48:09.688Z,5.68
2018-01-28T06:49:19.900Z,5.64
2018-01-28T06:50:30.029Z,5.56
2018-01-28T06:51:40.298Z,5.51
2018-01-28T06:52:50.590Z,5.51
2018-01-28T06:54:00.780Z,5.67
2018-01-28T06:55:10.943Z,5.64
2018-01-28T06:56:21.077Z,5.68
2018-01-28T06:57:31.232Z,5.69
2018-01-28T06:58:41.340Z,5.68
2018-01-28T06:59:51.517Z,5.64
2018-01-28T07:01:01.638Z,5.68
2018-01-28T07:02:11.540Z,5.64
2018-01-28T07:03:21.656Z,5.68
2018-01-28T07:04:31.770Z,5.71
2018-01-28T07:05:41.960Z,5.68
2018-01-28T07:06:52.163Z,5.68
2018-01-28T07:08:02.458Z,5.68
2018-01-28T07:09:13.574Z,5.69
2018-01-28T07:10:23.741Z,5.65
2018-01-28T07:11:33.863Z,5.68
2018-01-28T07:12:43.985Z,5.68
2018-01-28T07:13:54.211Z,5.68
2018-01-28T07:15:04.333Z,5.75
2018-01-28T07:16:14.520Z,5.71
2018-01-28T07:17:24.704Z,5.67
2018-01-28T07:18:34.582Z,5.69
2018-01-28T07:19:44.767Z,5.69
2018-01-28T07:20:55.002Z,5.68
2018-01-28T07:22:05.164Z,5.68
2018-01-28T07:23:15.332Z,5.71
2018-01-28T07:24:25.463Z,5.74
2018-01-28T07:25:35.634Z,5.71
2018-01-28T07:26:45.761Z,5.69
2018-01-28T07:27:55.932Z,5.82
2018-01-28T07:29:06.077Z,5.68
2018-01-28T07:30:16.000Z,5.64
2018-01-28T07:31:26.141Z,5.72
2018-01-28T07:32:36.273Z,5.68
2018-01-28T07:33:46.429Z,5.74
2018-01-28T07:34:56.614Z,5.69
2018-01-28T07:36:06.248Z,5.69
2018-01-28T07:37:16.441Z,5.69
2018-01-28T07:38:26.579Z,5.74
2018-01-28T07:39:36.747Z,5.69
2018-01-28T07:40:46.908Z,5.68
2018-01-28T07:41:57.007Z,5.74
2018-01-28T07:43:07.208Z,5.74
2018-01-28T07:44:17.409Z,5.75
2018-01-28T07:45:27.539Z,5.74
2018-01-28T07:46:37.680Z,5.71
2018-01-28T07:47:47.809Z,5.72
2018-01-28T07:48:57.993Z,5.71
2018-01-28T07:50:08.193Z,5.83
2018-01-28T07:51:18.454Z,5.86
2018-01-28T07:52:28.627Z,5.84
2018-01-28T07:53:38.752Z,5.82
2018-01-28T07:54:49.047Z,5.82
2018-01-28T07:55:59.184Z,5.68
2018-01-28T07:57:09.432Z,5.69
2018-01-28T07:58:19.745Z,5.8
2018-01-28T07:59:29.901Z,5.75
2018-01-28T08:00:40.041Z,5.75
2018-01-28T08:01:50.242Z,5.69
2018-01-28T08:03:00.531Z,5.84
2018-01-28T08:04:10.703Z,5.8
2018-01-28T08:05:20.985Z,5.71
2018-01-28T08:06:31.122Z,5.86
2018-01-28T08:07:41.285Z,5.8
2018-01-28T08:08:51.444Z,5.83
2018-01-28T08:10:01.589Z,5.88
2018-01-28T08:11:11.728Z,5.69
2018-01-28T08:12:21.900Z,5.86
2018-01-28T08:13:32.043Z,5.83
2018-01-28T08:14:42.225Z,5.91
2018-01-28T08:15:52.429Z,5.91
2018-01-28T08:17:02.683Z,5.98
2018-01-28T08:18:12.841Z,5.83
2018-01-28T08:19:22.989Z,5.88
2018-01-28T08:20:33.113Z,5.86
2018-01-28T08:21:43.257Z,5.72
2018-01-28T08:22:53.389Z,5.77
2018-01-28T08:24:03.598Z,5.9
2018-01-28T08:25:13.858Z,5.9
2018-01-28T08:26:23.986Z,5.86
2018-01-28T08:27:34.159Z,5.98
2018-01-28T08:28:44.378Z,5.77
2018-01-28T08:29:54.275Z,5.84
2018-01-28T08:31:04.455Z,5.83
2018-01-28T08:32:14.588Z,5.8
2018-01-28T08:33:24.745Z,5.83
2018-01-28T08:34:34.922Z,5.8
2018-01-28T08:35:45.213Z,5.94
2018-01-28T08:36:55.353Z,5.9
2018-01-28T08:38:05.502Z,5.77
2018-01-28T08:39:15.479Z,5.88
2018-01-28T08:40:25.651Z,5.86
2018-01-28T08:41:35.931Z,5.88
2018-01-28T08:42:46.123Z,5.84
2018-01-28T08:43:56.328Z,5.88
2018-01-28T08:45:06.495Z,5.86
2018-01-28T08:46:16.963Z,5.79
2018-01-28T08:47:26.897Z,5.75
2018-01-28T08:48:37.053Z,5.75
2018-01-28T08:49:47.219Z,5.74
2018-01-28T08:50:57.350Z,5.72
2018-01-28T08:52:07.544Z,5.77
2018-01-28T08:53:17.838Z,5.77
2018-01-28T08:54:27.964Z,5.79
2018-01-28T08:55:38.118Z,5.8
2018-01-28T08:56:48.251Z,5.83
2018-01-28T08:57:59.397Z,5.75
2018-01-28T08:59:09.537Z,5.79
2018-01-28T09:00:19.916Z,5.8
2018-01-28T09:01:30.098Z,5.67
2018-01-28T09:02:40.349Z,5.64
2018-01-28T09:03:50.543Z,5.71
2018-01-28T09:05:00.756Z,5.69
2018-01-28T09:06:10.966Z,5.69
2018-01-28T09:07:21.139Z,5.83
2018-01-28T09:08:31.340Z,5.84
2018-01-28T09:09:41.498Z,5.86
2018-01-28T09:10:51.638Z,5.72
2018-01-28T09:12:01.798Z,5.91
2018-01-28T09:13:11.912Z,5.88
2018-01-28T09:14:22.133Z,5.86
2018-01-28T09:15:32.355Z,5.9
2018-01-28T09:16:42.574Z,5.91
2018-01-28T09:17:52.832Z,5.86
2018-01-28T09:19:02.976Z,5.83
2018-01-28T09:20:13.157Z,5.82
2018-01-28T09:21:23.393Z,5.84
2018-01-28T09:22:33.722Z,5.83
2018-01-28T09:23:43.931Z,5.79
2018-01-28T09:24:54.120Z,5.77
2018-01-28T09:26:04.345Z,5.84
2018-01-28T09:27:14.522Z,5.88
2018-01-28T09:28:24.430Z,5.84
2018-01-28T09:29:34.231Z,5.86
2018-01-28T09:30:44.415Z,5.8
2018-01-28T09:31:54.246Z,5.86
2018-01-28T09:33:04.419Z,5.9
2018-01-28T09:34:14.575Z,5.8
2018-01-28T09:35:24.745Z,5.77
2018-01-28T09:36:34.896Z,5.9
2018-01-28T09:37:45.084Z,5.9
2018-01-28T09:38:55.248Z,5.88
2018-01-28T09:40:05.495Z,5.91
2018-01-28T09:41:15.397Z,5.9
2018-01-28T09:42:25.569Z,5.99
2018-01-28T09:43:35.816Z,6.02
2018-01-28T09:44:45.678Z,5.99
2018-01-28T09:45:55.812Z,5.98
2018-01-28T09:47:05.967Z,6.14
2018-01-28T09:48:15.904Z,6.02
2018-01-28T09:49:26.080Z,6.03
2018-01-28T09:50:36.249Z,6.12
2018-01-28T09:51:46.389Z,6.14
2018-01-28T09:52:56.547Z,6.17
2018-01-28T09:54:06.408Z,6.12
2018-01-28T09:55:16.581Z,6.19
2018-01-28T09:56:26.772Z,6.16
2018-01-28T09:57:36.977Z,6.21
2018-01-28T09:58:47.242Z,6.31
2018-01-28T09:59:57.542Z,6.27
2018-01-28T10:01:07.687Z,6.3
2018-01-28T10:02:17.827Z,6.28
2018-01-28T10:03:27.964Z,6.35
2018-01-28T10:04:37.943Z,6.3
2018-01-28T10:05:48.113Z,6.35
2018-01-28T10:06:58.279Z,6.26
2018-01-28T10:08:08.475Z,6.3
2018-01-28T10:09:18.690Z,6.24
2018-01-28T10:10:28.895Z,6.27
2018-01-28T10:11:39.095Z,6.3
2018-01-28T10:12:48.999Z,6.34
2018-01-28T10:13:59.230Z,6.36
2018-01-28T10:15:09.113Z,6.35
2018-01-28T10:16:19.224Z,6.34
2018-01-28T10:17:29.385Z,6.31
2018-01-28T10:18:39.561Z,6.3
2018-01-28T10:19:49.704Z,6.41
2018-01-28T10:20:59.941Z,6.38
2018-01-28T10:22:10.106Z,6.44
2018-01-28T10:23:20.362Z,6.45
2018-01-28T10:24:30.581Z,6.41
2018-01-28T10:25:40.757Z,6.46
2018-01-28T10:26:50.672Z,6.49
2018-01-28T10:28:00.872Z,6.48
2018-01-28T10:29:10.894Z,6.54
2018-01-28T10:30:21.161Z,6.48
2018-01-28T10:31:31.364Z,6.44
2018-01-28T10:32:41.587Z,6.53
2018-01-28T10:33:51.491Z,6.46
2018-01-28T10:35:01.658Z,6.49
2018-01-28T10:36:12.859Z,6.54
2018-01-28T10:37:23.051Z,6.54
2018-01-28T10:38:33.258Z,6.53
2018-01-28T10:39:43.538Z,6.57
2018-01-28T10:40:53.762Z,6.56
2018-01-28T10:42:03.928Z,6.45
2018-01-28T10:43:14.082Z,6.53
2018-01-28T10:44:24.287Z,6.57
2018-01-28T10:45:34.527Z,6.53
2018-01-28T10:46:44.761Z,6.45
2018-01-28T10:47:55.001Z,6.45
2018-01-28T10:49:05.211Z,6.49
2018-01-28T10:50:15.486Z,6.48
2018-01-28T10:51:25.844Z,6.44
2018-01-28T10:52:36.043Z,6.59
2018-01-28T10:53:46.263Z,6.54
2018-01-28T10:54:56.419Z,6.54
2018-01-28T10:56:06.574Z,6.56
2018-01-28T10:57:16.761Z,6.59
2018-01-28T10:58:27.006Z,6.54
2018-01-28T10:59:37.186Z,6.53
2018-01-28T11:00:47.433Z,6.66
2018-01-28T11:01:57.650Z,6.56
2018-01-28T11:03:07.905Z,6.6
2018-01-28T11:04:18.163Z,6.54
2018-01-28T11:05:28.351Z,6.63
2018-01-28T11:06:38.585Z,6.66
2018-01-28T11:07:48.797Z,6.63
2018-01-28T11:08:59.034Z,6.74
2018-01-28T11:10:09.266Z,6.79
2018-01-28T11:11:19.423Z,6.96
2018-01-28T11:12:29.702Z,7.06
2018-01-28T11:13:39.882Z,7.18
2018-01-28T11:14:50.137Z,7.29
2018-01-28T11:16:00.060Z,7.39
2018-01-28T11:17:10.232Z,7.47
2018-01-28T11:18:20.408Z,7.54
2018-01-28T11:19:30.591Z,7.66
2018-01-28T11:20:40.748Z,7.58
2018-01-28T11:21:51.044Z,7.72
2018-01-28T11:23:01.238Z,7.67
2018-01-28T11:24:11.445Z,7.77
2018-01-28T11:25:21.628Z,7.74
2018-01-28T11:26:31.828Z,7.77
2018-01-28T11:27:41.946Z,7.73
2018-01-28T11:28:52.187Z,7.66
2018-01-28T11:30:02.380Z,7.61
2018-01-28T11:31:12.706Z,7.51
2018-01-28T11:32:22.988Z,7.61
2018-01-28T11:33:33.240Z,7.54
2018-01-28T11:34:43.432Z,7.51
2018-01-28T11:35:53.620Z,7.47
2018-01-28T11:37:03.828Z,7.49
2018-01-28T11:38:14.113Z,7.44
2018-01-28T11:39:24.300Z,7.44
2018-01-28T11:40:34.506Z,7.44
2018-01-28T11:41:44.804Z,7.31
2018-01-28T11:42:55.010Z,7.39
2018-01-28T11:44:05.189Z,7.36
2018-01-28T11:45:15.352Z,7.4
2018-01-28T11:46:25.533Z,7.22
2018-01-28T11:47:35.810Z,7.29
2018-01-28T11:48:45.971Z,7.22
2018-01-28T11:49:56.217Z,7.13
2018-01-28T11:51:06.473Z,7.21
2018-01-28T11:52:16.697Z,7.21
2018-01-28T11:53:26.922Z,7.15
2018-01-28T11:54:37.150Z,7.21
2018-01-28T11:55:47.510Z,7.06
2018-01-28T11:56:57.695Z,7.05
2018-01-28T11:58:07.858Z,7.13
2018-01-28T11:59:18.093Z,7.08
2018-01-28T12:00:28.289Z,7.15
2018-01-28T12:01:38.501Z,7.15
2018-01-28T12:02:48.660Z,7.08
2018-01-28T12:03:58.798Z,7.02
2018-01-28T12:05:08.977Z,7.13
2018-01-28T12:06:19.207Z,7.06
2018-01-28T12:07:29.383Z,7.1
2018-01-28T12:08:39.583Z,7.1
2018-01-28T12:09:49.744Z,7.13
2018-01-28T12:10:59.971Z,7.13
2018-01-28T12:12:10.156Z,7.13
2018-01-28T12:13:20.319Z,7.13
2018-01-28T12:14:30.519Z,7.15
2018-01-28T12:15:40.704Z,7.18
2018-01-28T12:16:50.872Z,7.15
2018-01-28T12:18:01.111Z,7.15
2018-01-28T12:19:11.431Z,7.14
2018-01-28T12:20:21.673Z,7.08
2018-01-28T12:21:31.937Z,7.21
2018-01-28T12:22:42.083Z,7.26
2018-01-28T12:23:52.369Z,7.21
2018-01-28T12:25:02.547Z,7.15
2018-01-28T12:26:12.818Z,7.26
2018-01-28T12:27:22.981Z,7.22
2018-01-28T12:28:33.161Z,7.24
2018-01-28T12:29:43.327Z,7.36
2018-01-28T12:30:53.553Z,7.21
2018-01-28T12:32:03.816Z,7.21
2018-01-28T12:33:14.086Z,7.21
2018-01-28T12:34:23.792Z,7.24
2018-01-28T12:35:34.005Z,7.31
2018-01-28T12:36:45.180Z,7.28
2018-01-28T12:37:55.368Z,7.37
2018-01-28T12:39:05.599Z,7.34
2018-01-28T12:40:15.805Z,7.37
2018-01-28T12:41:25.992Z,7.43
2018-01-28T12:42:36.180Z,7.39
2018-01-28T12:43:46.377Z,7.4
2018-01-28T12:44:56.418Z,7.49
2018-01-28T12:46:06.618Z,7.51
2018-01-28T12:47:16.823Z,7.51
2018-01-28T12:48:27.041Z,7.49
2018-01-28T12:49:37.229Z,7.55
2018-01-28T12:50:47.431Z,7.52
2018-01-28T12:51:57.622Z,7.51
2018-01-28T12:53:07.911Z,7.58
2018-01-28T12:54:18.085Z,7.55
2018-01-28T12:55:28.454Z,7.52
2018-01-28T12:56:38.590Z,7.54
2018-01-28T12:57:48.783Z,7.54
2018-01-28T12:58:58.967Z,7.51
2018-01-28T13:00:09.168Z,7.58
2018-01-28T13:01:19.380Z,7.55
2018-01-28T13:02:29.596Z,7.62
2018-01-28T13:03:39.780Z,7.64
2018-01-28T13:04:50.106Z,7.7
2018-01-28T13:06:00.408Z,7.74
2018-01-28T13:07:10.633Z,7.64
2018-01-28T13:08:20.832Z,7.7
2018-01-28T13:09:31.043Z,7.72
2018-01-28T13:10:41.268Z,7.77
2018-01-28T13:11:51.447Z,7.82
2018-01-28T13:13:01.653Z,7.79
2018-01-28T13:14:11.870Z,7.82
2018-01-28T13:15:22.074Z,7.8
2018-01-28T13:16:32.288Z,7.79
2018-01-28T13:17:42.479Z,7.8
2018-01-28T13:18:52.688Z,7.77
2018-01-28T13:20:02.917Z,7.74
2018-01-28T13:21:13.184Z,7.77
2018-01-28T13:22:23.447Z,7.84
2018-01-28T13:23:33.677Z,7.87
2018-01-28T13:24:43.910Z,7.77
2018-01-28T13:25:54.195Z,7.79
2018-01-28T13:27:04.554Z,7.87
2018-01-28T13:28:14.832Z,7.92
2018-01-28T13:29:25.101Z,7.85
2018-01-28T13:30:35.042Z,7.77
2018-01-28T13:31:45.313Z,7.82
2018-01-28T13:32:55.494Z,7.85
2018-01-28T13:34:05.763Z,7.87
2018-01-28T13:35:15.955Z,7.84
2018-01-28T13:36:26.186Z,7.88
2018-01-28T13:37:36.395Z,7.94
2018-01-28T13:38:46.889Z,7.95
2018-01-28T13:39:57.180Z,7.88
2018-01-28T13:41:07.416Z,7.9
2018-01-28T13:42:17.694Z,7.91
2018-01-28T13:43:27.924Z,8.03
2018-01-28T13:44:38.273Z,7.92
2018-01-28T13:45:48.454Z,7.91
2018-01-28T13:46:58.667Z,7.92
2018-01-28T13:48:08.868Z,7.91
2018-01-28T13:49:19.115Z,7.92
2018-01-28T13:50:29.350Z,7.9
2018-01-28T13:51:39.558Z,7.94
2018-01-28T13:52:49.777Z,7.92
2018-01-28T13:53:59.962Z,7.88
2018-01-28T13:55:10.153Z,7.94
2018-01-28T13:56:20.416Z,7.87
2018-01-28T13:57:30.635Z,7.9
2018-01-28T13:58:40.881Z,7.87
2018-01-28T13:59:51.075Z,7.87
2018-01-28T14:01:01.237Z,7.87
2018-01-28T14:02:11.383Z,7.88
2018-01-28T14:03:21.747Z,7.95
2018-01-28T14:04:31.909Z,7.88
2018-01-28T14:05:42.134Z,7.98
2018-01-28T14:06:52.301Z,7.98
2018-01-28T14:08:02.495Z,7.92
2018-01-28T14:09:12.739Z,7.99
2018-01-28T14:10:22.969Z,7.97
2018-01-28T14:11:33.212Z,7.97
2018-01-28T14:12:44.480Z,7.94
2018-01-28T14:13:54.688Z,7.9
2018-01-28T14:15:04.863Z,7.94
2018-01-28T14:16:15.056Z,7.95
2018-01-28T14:17:25.252Z,7.95
2018-01-28T14:18:35.490Z,7.88
2018-01-28T14:19:45.765Z,7.85
2018-01-28T14:20:56.002Z,7.88
2018-01-28T14:22:06.269Z,7.84
2018-01-28T14:23:16.533Z,7.84
2018-01-28T14:24:26.714Z,7.82
2018-01-28T14:25:36.864Z,7.82
2018-01-28T14:26:47.110Z,7.9
2018-01-28T14:27:57.363Z,7.9
2018-01-28T14:29:07.586Z,7.92
2018-01-28T14:30:17.851Z,7.85
2018-01-28T14:31:28.055Z,7.87
2018-01-28T14:32:38.239Z,7.85
2018-01-28T14:33:48.420Z,7.82
2018-01-28T14:34:58.611Z,7.88
2018-01-28T14:36:08.910Z,7.87
2018-01-28T14:37:19.116Z,7.9
2018-01-28T14:38:29.356Z,7.84
2018-01-28T14:39:39.602Z,7.82
2018-01-28T14:40:49.827Z,7.82
2018-01-28T14:42:01.024Z,7.85
2018-01-28T14:43:11.254Z,7.8
2018-01-28T14:44:21.440Z,7.91
2018-01-28T14:45:31.642Z,7.9
2018-01-28T14:46:41.927Z,7.87
2018-01-28T14:47:51.844Z,7.85
2018-01-28T14:49:02.143Z,7.82
2018-01-28T14:50:12.369Z,7.87
2018-01-28T14:51:22.624Z,7.82
2018-01-28T14:52:32.828Z,7.85
2018-01-28T14:53:43.110Z,7.87
2018-01-28T14:54:53.317Z,7.9
2018-01-28T14:56:03.591Z,7.87
2018-01-28T14:57:13.762Z,7.85
2018-01-28T14:58:23.949Z,7.88
2018-01-28T14:59:34.269Z,7.87
2018-01-28T15:00:44.511Z,7.82
2018-01-28T15:01:55.649Z,7.82
2018-01-28T15:03:05.885Z,7.8
2018-01-28T15:04:16.156Z,7.82
2018-01-28T15:05:26.435Z,7.76
2018-01-28T15:06:36.652Z,7.8
2018-01-28T15:07:46.948Z,7.8
2018-01-28T15:08:56.911Z,7.85
2018-01-28T15:10:07.242Z,7.77
2018-01-28T15:11:17.499Z,7.76
2018-01-28T15:12:27.704Z,7.74
2018-01-28T15:13:37.768Z,7.76
2018-01-28T15:14:48.075Z,7.79
2018-01-28T15:15:58.431Z,7.79
2018-01-28T15:17:08.727Z,7.74
2018-01-28T15:18:19.111Z,7.74
2018-01-28T15:19:29.448Z,7.79
2018-01-28T15:20:39.795Z,7.72
2018-01-28T15:21:50.067Z,7.74
2018-01-28T15:23:00.414Z,7.74
2018-01-28T15:24:10.632Z,7.74
2018-01-28T15:25:21.161Z,7.76
2018-01-28T15:26:31.341Z,7.79
2018-01-28T15:27:41.542Z,7.74
2018-01-28T15:28:51.464Z,7.76
2018-01-28T15:30:01.779Z,7.73
2018-01-28T15:31:12.059Z,7.74
2018-01-28T15:32:22.368Z,7.8
2018-01-28T15:33:32.603Z,7.77
2018-01-28T15:34:42.873Z,7.74
2018-01-28T15:35:53.096Z,7.8
2018-01-28T15:37:03.366Z,7.73